sensor_id;sensor_type;location;lat;lon;timestamp;P1;durP1;ratioP1;P2;durP2;ratioP2
18997;SDS011;9632;51.018;4.284;2023-10-08T00:01:48;5.35;;;2.20;;
18997;SDS011;9632;51.018;4.284;2023-10-08T00:04:16;5.97;;;2.28;;
18997;SDS011;9632;51.018;4.284;2023-10-08T00:06:44;7.40;;;2.25;;
18997;SDS011;9632;51.018;4.284;2023-10-08T00:09:10;9.50;;;2.47;;
18997;SDS011;9632;51.018;4.284;2023-10-08T00:11:36;4.97;;;2.33;;
18997;SDS011;9632;51.018;4.284;2023-10-08T00:14:04;5.93;;;2.22;;
18997;SDS011;9632;51.018;4.284;2023-10-08T00:16:37;4.38;;;2.20;;
18997;SDS011;9632;51.018;4.284;2023-10-08T00:19:06;8.15;;;2.65;;
18997;SDS011;9632;51.018;4.284;2023-10-08T00:21:40;4.78;;;2.25;;
18997;SDS011;9632;51.018;4.284;2023-10-08T00:24:09;4.65;;;2.10;;
18997;SDS011;9632;51.018;4.284;2023-10-08T00:26:35;5.38;;;2.15;;
18997;SDS011;9632;51.018;4.284;2023-10-08T00:29:05;6.03;;;2.28;;
18997;SDS011;9632;51.018;4.284;2023-10-08T00:31:44;7.50;;;2.17;;
18997;SDS011;9632;51.018;4.284;2023-10-08T00:34:11;6.13;;;2.15;;
18997;SDS011;9632;51.018;4.284;2023-10-08T00:36:41;4.38;;;1.67;;
18997;SDS011;9632;51.018;4.284;2023-10-08T00:39:08;3.85;;;2.08;;
18997;SDS011;9632;51.018;4.284;2023-10-08T00:41:52;4.47;;;1.90;;
18997;SDS011;9632;51.018;4.284;2023-10-08T00:44:23;4.68;;;2.30;;
18997;SDS011;9632;51.018;4.284;2023-10-08T00:46:58;5.28;;;2.10;;
18997;SDS011;9632;51.018;4.284;2023-10-08T00:49:29;5.38;;;2.17;;
18997;SDS011;9632;51.018;4.284;2023-10-08T00:52:08;4.25;;;2.10;;
18997;SDS011;9632;51.018;4.284;2023-10-08T00:54:35;6.28;;;1.98;;
18997;SDS011;9632;51.018;4.284;2023-10-08T00:57:18;6.25;;;2.20;;
18997;SDS011;9632;51.018;4.284;2023-10-08T00:59:46;7.57;;;2.33;;
18997;SDS011;9632;51.018;4.284;2023-10-08T01:02:25;6.05;;;2.30;;
18997;SDS011;9632;51.018;4.284;2023-10-08T01:04:53;6.90;;;2.53;;
18997;SDS011;9632;51.018;4.284;2023-10-08T01:07:23;6.80;;;2.58;;
18997;SDS011;9632;51.018;4.284;2023-10-08T01:09:50;4.32;;;1.85;;
18997;SDS011;9632;51.018;4.284;2023-10-08T01:14:52;6.10;;;2.42;;
18997;SDS011;9632;51.018;4.284;2023-10-08T01:17:41;6.50;;;1.90;;
18997;SDS011;9632;51.018;4.284;2023-10-08T01:20:19;4.65;;;2.25;;
18997;SDS011;9632;51.018;4.284;2023-10-08T01:22:59;4.95;;;2.13;;
18997;SDS011;9632;51.018;4.284;2023-10-08T01:25:35;6.88;;;2.20;;
18997;SDS011;9632;51.018;4.284;2023-10-08T01:28:35;5.97;;;2.13;;
18997;SDS011;9632;51.018;4.284;2023-10-08T01:31:00;3.90;;;1.80;;
18997;SDS011;9632;51.018;4.284;2023-10-08T01:33:28;5.88;;;2.30;;
18997;SDS011;9632;51.018;4.284;2023-10-08T01:35:56;8.13;;;2.50;;
18997;SDS011;9632;51.018;4.284;2023-10-08T01:38:28;5.70;;;2.38;;
18997;SDS011;9632;51.018;4.284;2023-10-08T01:40:55;4.85;;;2.20;;
18997;SDS011;9632;51.018;4.284;2023-10-08T01:43:21;6.45;;;2.40;;
18997;SDS011;9632;51.018;4.284;2023-10-08T01:45:47;7.43;;;2.72;;
18997;SDS011;9632;51.018;4.284;2023-10-08T01:48:19;6.28;;;2.42;;
18997;SDS011;9632;51.018;4.284;2023-10-08T01:50:53;6.60;;;2.33;;
18997;SDS011;9632;51.018;4.284;2023-10-08T01:53:20;5.82;;;2.63;;
18997;SDS011;9632;51.018;4.284;2023-10-08T01:55:46;4.93;;;2.42;;
18997;SDS011;9632;51.018;4.284;2023-10-08T01:58:17;6.65;;;2.45;;
18997;SDS011;9632;51.018;4.284;2023-10-08T02:00:44;8.45;;;2.67;;
18997;SDS011;9632;51.018;4.284;2023-10-08T02:03:10;5.25;;;2.22;;
18997;SDS011;9632;51.018;4.284;2023-10-08T02:05:38;5.10;;;2.30;;
18997;SDS011;9632;51.018;4.284;2023-10-08T02:08:07;5.65;;;2.40;;
18997;SDS011;9632;51.018;4.284;2023-10-08T02:10:37;6.70;;;2.97;;
18997;SDS011;9632;51.018;4.284;2023-10-08T02:13:05;7.07;;;2.67;;
18997;SDS011;9632;51.018;4.284;2023-10-08T02:15:33;5.68;;;2.05;;
18997;SDS011;9632;51.018;4.284;2023-10-08T02:17:59;8.27;;;2.65;;
18997;SDS011;9632;51.018;4.284;2023-10-08T02:20:25;7.93;;;2.50;;
18997;SDS011;9632;51.018;4.284;2023-10-08T02:22:52;6.22;;;2.75;;
18997;SDS011;9632;51.018;4.284;2023-10-08T02:25:19;7.07;;;2.70;;
18997;SDS011;9632;51.018;4.284;2023-10-08T02:27:44;6.95;;;2.40;;
18997;SDS011;9632;51.018;4.284;2023-10-08T02:30:10;7.45;;;2.65;;
18997;SDS011;9632;51.018;4.284;2023-10-08T02:32:37;6.68;;;2.40;;
18997;SDS011;9632;51.018;4.284;2023-10-08T02:35:07;5.90;;;2.67;;
18997;SDS011;9632;51.018;4.284;2023-10-08T02:37:36;7.05;;;2.95;;
18997;SDS011;9632;51.018;4.284;2023-10-08T02:40:05;6.93;;;2.75;;
18997;SDS011;9632;51.018;4.284;2023-10-08T02:42:42;6.43;;;2.40;;
18997;SDS011;9632;51.018;4.284;2023-10-08T02:45:09;6.40;;;2.30;;
18997;SDS011;9632;51.018;4.284;2023-10-08T02:47:40;4.88;;;2.40;;
18997;SDS011;9632;51.018;4.284;2023-10-08T02:50:07;5.32;;;2.45;;
18997;SDS011;9632;51.018;4.284;2023-10-08T02:52:33;7.07;;;2.80;;
18997;SDS011;9632;51.018;4.284;2023-10-08T02:54:59;5.57;;;2.40;;
18997;SDS011;9632;51.018;4.284;2023-10-08T02:57:25;6.10;;;2.30;;
18997;SDS011;9632;51.018;4.284;2023-10-08T02:59:54;5.57;;;2.47;;
18997;SDS011;9632;51.018;4.284;2023-10-08T03:02:20;6.65;;;2.58;;
18997;SDS011;9632;51.018;4.284;2023-10-08T03:04:47;5.57;;;2.45;;
18997;SDS011;9632;51.018;4.284;2023-10-08T03:07:16;7.50;;;2.67;;
18997;SDS011;9632;51.018;4.284;2023-10-08T03:09:57;6.32;;;2.42;;
18997;SDS011;9632;51.018;4.284;2023-10-08T03:12:42;5.18;;;2.40;;
18997;SDS011;9632;51.018;4.284;2023-10-08T03:15:11;5.95;;;2.50;;
18997;SDS011;9632;51.018;4.284;2023-10-08T03:17:42;5.75;;;2.30;;
18997;SDS011;9632;51.018;4.284;2023-10-08T03:20:16;5.47;;;2.28;;
18997;SDS011;9632;51.018;4.284;2023-10-08T03:23:03;8.30;;;2.78;;
18997;SDS011;9632;51.018;4.284;2023-10-08T03:25:38;5.97;;;2.70;;
18997;SDS011;9632;51.018;4.284;2023-10-08T03:28:07;6.20;;;2.40;;
18997;SDS011;9632;51.018;4.284;2023-10-08T03:30:38;7.53;;;2.90;;
18997;SDS011;9632;51.018;4.284;2023-10-08T03:33:13;7.03;;;2.55;;
18997;SDS011;9632;51.018;4.284;2023-10-08T03:35:47;5.28;;;2.60;;
18997;SDS011;9632;51.018;4.284;2023-10-08T03:38:17;9.18;;;2.60;;
18997;SDS011;9632;51.018;4.284;2023-10-08T03:40:53;7.07;;;3.08;;
18997;SDS011;9632;51.018;4.284;2023-10-08T03:43:22;8.65;;;2.95;;
18997;SDS011;9632;51.018;4.284;2023-10-08T03:45:59;8.40;;;3.00;;
18997;SDS011;9632;51.018;4.284;2023-10-08T03:48:25;6.25;;;2.60;;
18997;SDS011;9632;51.018;4.284;2023-10-08T03:50:54;8.25;;;2.88;;
18997;SDS011;9632;51.018;4.284;2023-10-08T03:53:31;8.45;;;2.95;;
18997;SDS011;9632;51.018;4.284;2023-10-08T03:56:02;6.22;;;2.53;;
18997;SDS011;9632;51.018;4.284;2023-10-08T03:58:30;10.43;;;3.08;;
18997;SDS011;9632;51.018;4.284;2023-10-08T04:00:59;6.30;;;3.13;;
18997;SDS011;9632;51.018;4.284;2023-10-08T04:03:35;8.65;;;2.97;;
18997;SDS011;9632;51.018;4.284;2023-10-08T04:06:30;6.30;;;2.55;;
18997;SDS011;9632;51.018;4.284;2023-10-08T04:09:03;7.95;;;2.65;;
18997;SDS011;9632;51.018;4.284;2023-10-08T04:11:45;7.35;;;2.63;;
18997;SDS011;9632;51.018;4.284;2023-10-08T04:14:14;7.78;;;2.60;;
18997;SDS011;9632;51.018;4.284;2023-10-08T04:16:43;6.88;;;2.90;;
18997;SDS011;9632;51.018;4.284;2023-10-08T04:19:09;4.90;;;2.65;;
18997;SDS011;9632;51.018;4.284;2023-10-08T04:21:36;10.73;;;3.03;;
18997;SDS011;9632;51.018;4.284;2023-10-08T04:24:02;7.30;;;3.17;;
18997;SDS011;9632;51.018;4.284;2023-10-08T04:26:31;5.78;;;2.45;;
18997;SDS011;9632;51.018;4.284;2023-10-08T04:28:57;8.20;;;2.70;;
18997;SDS011;9632;51.018;4.284;2023-10-08T04:31:27;5.78;;;2.63;;
18997;SDS011;9632;51.018;4.284;2023-10-08T04:34:01;5.93;;;2.65;;
18997;SDS011;9632;51.018;4.284;2023-10-08T04:36:32;7.93;;;2.55;;
18997;SDS011;9632;51.018;4.284;2023-10-08T04:38:57;6.47;;;2.60;;
18997;SDS011;9632;51.018;4.284;2023-10-08T04:41:29;6.25;;;2.70;;
18997;SDS011;9632;51.018;4.284;2023-10-08T04:43:55;6.78;;;2.75;;
18997;SDS011;9632;51.018;4.284;2023-10-08T04:46:21;8.85;;;2.75;;
18997;SDS011;9632;51.018;4.284;2023-10-08T04:49:10;6.30;;;2.70;;
18997;SDS011;9632;51.018;4.284;2023-10-08T04:51:51;5.93;;;2.38;;
18997;SDS011;9632;51.018;4.284;2023-10-08T04:54:33;6.75;;;2.70;;
18997;SDS011;9632;51.018;4.284;2023-10-08T04:57:05;5.30;;;2.20;;
18997;SDS011;9632;51.018;4.284;2023-10-08T04:59:32;6.47;;;2.70;;
18997;SDS011;9632;51.018;4.284;2023-10-08T05:02:01;6.10;;;2.63;;
18997;SDS011;9632;51.018;4.284;2023-10-08T05:04:48;6.45;;;2.70;;
18997;SDS011;9632;51.018;4.284;2023-10-08T05:07:32;7.10;;;2.67;;
18997;SDS011;9632;51.018;4.284;2023-10-08T05:10:09;6.50;;;2.80;;
18997;SDS011;9632;51.018;4.284;2023-10-08T05:12:43;6.05;;;2.40;;
18997;SDS011;9632;51.018;4.284;2023-10-08T05:15:16;8.02;;;2.92;;
18997;SDS011;9632;51.018;4.284;2023-10-08T05:17:45;6.18;;;2.88;;
18997;SDS011;9632;51.018;4.284;2023-10-08T05:20:14;7.13;;;3.45;;
18997;SDS011;9632;51.018;4.284;2023-10-08T05:23:06;6.88;;;2.92;;
18997;SDS011;9632;51.018;4.284;2023-10-08T05:25:52;7.63;;;3.30;;
18997;SDS011;9632;51.018;4.284;2023-10-08T05:28:35;6.20;;;2.65;;
18997;SDS011;9632;51.018;4.284;2023-10-08T05:31:11;7.43;;;3.15;;
18997;SDS011;9632;51.018;4.284;2023-10-08T05:33:41;5.88;;;3.03;;
18997;SDS011;9632;51.018;4.284;2023-10-08T05:36:26;6.50;;;3.00;;
18997;SDS011;9632;51.018;4.284;2023-10-08T05:39:10;5.80;;;2.63;;
18997;SDS011;9632;51.018;4.284;2023-10-08T05:41:54;7.00;;;3.03;;
18997;SDS011;9632;51.018;4.284;2023-10-08T05:44:41;8.63;;;3.60;;
18997;SDS011;9632;51.018;4.284;2023-10-08T05:47:35;8.43;;;3.28;;
18997;SDS011;9632;51.018;4.284;2023-10-08T05:50:02;10.65;;;3.42;;
18997;SDS011;9632;51.018;4.284;2023-10-08T05:52:57;9.27;;;3.10;;
18997;SDS011;9632;51.018;4.284;2023-10-08T05:55:23;7.88;;;3.13;;
18997;SDS011;9632;51.018;4.284;2023-10-08T05:58:03;6.63;;;3.20;;
18997;SDS011;9632;51.018;4.284;2023-10-08T06:00:49;8.80;;;3.55;;
18997;SDS011;9632;51.018;4.284;2023-10-08T06:03:19;6.65;;;3.40;;
18997;SDS011;9632;51.018;4.284;2023-10-08T06:06:01;8.82;;;3.17;;
18997;SDS011;9632;51.018;4.284;2023-10-08T06:08:49;6.55;;;2.92;;
18997;SDS011;9632;51.018;4.284;2023-10-08T06:11:32;7.93;;;2.67;;
18997;SDS011;9632;51.018;4.284;2023-10-08T06:14:31;6.20;;;2.92;;
18997;SDS011;9632;51.018;4.284;2023-10-08T06:17:28;7.88;;;2.78;;
18997;SDS011;9632;51.018;4.284;2023-10-08T06:20:21;7.20;;;3.47;;
18997;SDS011;9632;51.018;4.284;2023-10-08T06:22:50;11.57;;;4.00;;
18997;SDS011;9632;51.018;4.284;2023-10-08T06:25:19;9.45;;;3.75;;
18997;SDS011;9632;51.018;4.284;2023-10-08T06:27:55;7.93;;;3.33;;
18997;SDS011;9632;51.018;4.284;2023-10-08T06:30:22;9.40;;;3.38;;
18997;SDS011;9632;51.018;4.284;2023-10-08T06:32:50;8.80;;;3.53;;
18997;SDS011;9632;51.018;4.284;2023-10-08T06:35:15;8.65;;;3.50;;
18997;SDS011;9632;51.018;4.284;2023-10-08T06:37:49;9.98;;;4.32;;
18997;SDS011;9632;51.018;4.284;2023-10-08T06:40:19;9.35;;;3.85;;
18997;SDS011;9632;51.018;4.284;2023-10-08T06:43:04;9.15;;;3.58;;
18997;SDS011;9632;51.018;4.284;2023-10-08T06:45:47;9.52;;;3.85;;
18997;SDS011;9632;51.018;4.284;2023-10-08T06:48:17;10.90;;;4.15;;
18997;SDS011;9632;51.018;4.284;2023-10-08T06:50:45;9.88;;;3.72;;
18997;SDS011;9632;51.018;4.284;2023-10-08T06:53:12;9.40;;;3.72;;
18997;SDS011;9632;51.018;4.284;2023-10-08T06:55:43;10.85;;;4.07;;
18997;SDS011;9632;51.018;4.284;2023-10-08T06:58:13;9.38;;;3.55;;
18997;SDS011;9632;51.018;4.284;2023-10-08T07:00:39;8.52;;;4.00;;
18997;SDS011;9632;51.018;4.284;2023-10-08T07:03:12;7.90;;;3.40;;
18997;SDS011;9632;51.018;4.284;2023-10-08T07:05:43;7.20;;;3.60;;
18997;SDS011;9632;51.018;4.284;2023-10-08T07:08:19;6.60;;;3.22;;
18997;SDS011;9632;51.018;4.284;2023-10-08T07:10:48;9.57;;;3.58;;
18997;SDS011;9632;51.018;4.284;2023-10-08T07:13:14;8.85;;;3.10;;
18997;SDS011;9632;51.018;4.284;2023-10-08T07:15:43;7.85;;;3.53;;
18997;SDS011;9632;51.018;4.284;2023-10-08T07:18:10;9.18;;;3.40;;
18997;SDS011;9632;51.018;4.284;2023-10-08T07:20:39;9.90;;;3.45;;
18997;SDS011;9632;51.018;4.284;2023-10-08T07:23:10;9.55;;;3.80;;
18997;SDS011;9632;51.018;4.284;2023-10-08T07:25:56;8.40;;;3.13;;
18997;SDS011;9632;51.018;4.284;2023-10-08T07:28:43;8.68;;;3.30;;
18997;SDS011;9632;51.018;4.284;2023-10-08T07:31:16;7.55;;;3.58;;
18997;SDS011;9632;51.018;4.284;2023-10-08T07:33:46;11.40;;;3.72;;
18997;SDS011;9632;51.018;4.284;2023-10-08T07:36:13;8.00;;;3.30;;
18997;SDS011;9632;51.018;4.284;2023-10-08T07:38:43;8.05;;;3.60;;
18997;SDS011;9632;51.018;4.284;2023-10-08T07:41:10;7.40;;;3.42;;
18997;SDS011;9632;51.018;4.284;2023-10-08T07:43:39;10.13;;;3.25;;
18997;SDS011;9632;51.018;4.284;2023-10-08T07:46:06;11.50;;;3.78;;
18997;SDS011;9632;51.018;4.284;2023-10-08T07:48:33;9.32;;;3.83;;
18997;SDS011;9632;51.018;4.284;2023-10-08T07:50:58;9.65;;;3.42;;
18997;SDS011;9632;51.018;4.284;2023-10-08T07:53:24;6.00;;;2.95;;
18997;SDS011;9632;51.018;4.284;2023-10-08T07:55:51;9.75;;;3.58;;
18997;SDS011;9632;51.018;4.284;2023-10-08T07:58:17;10.10;;;3.65;;
18997;SDS011;9632;51.018;4.284;2023-10-08T08:00:43;8.18;;;3.55;;
18997;SDS011;9632;51.018;4.284;2023-10-08T08:03:25;8.35;;;3.63;;
18997;SDS011;9632;51.018;4.284;2023-10-08T08:05:51;8.13;;;3.70;;
18997;SDS011;9632;51.018;4.284;2023-10-08T08:08:18;12.05;;;3.92;;
18997;SDS011;9632;51.018;4.284;2023-10-08T08:10:46;11.38;;;4.07;;
18997;SDS011;9632;51.018;4.284;2023-10-08T08:13:12;9.70;;;3.72;;
18997;SDS011;9632;51.018;4.284;2023-10-08T08:15:45;10.30;;;3.92;;
18997;SDS011;9632;51.018;4.284;2023-10-08T08:18:16;11.77;;;3.90;;
18997;SDS011;9632;51.018;4.284;2023-10-08T08:20:47;13.05;;;4.35;;
18997;SDS011;9632;51.018;4.284;2023-10-08T08:23:13;8.68;;;3.63;;
18997;SDS011;9632;51.018;4.284;2023-10-08T08:25:39;12.63;;;4.28;;
18997;SDS011;9632;51.018;4.284;2023-10-08T08:28:20;7.70;;;3.72;;
18997;SDS011;9632;51.018;4.284;2023-10-08T08:30:49;17.42;;;5.18;;
18997;SDS011;9632;51.018;4.284;2023-10-08T08:33:17;10.70;;;4.10;;
18997;SDS011;9632;51.018;4.284;2023-10-08T08:36:00;14.25;;;5.03;;
18997;SDS011;9632;51.018;4.284;2023-10-08T08:38:27;14.75;;;4.97;;
18997;SDS011;9632;51.018;4.284;2023-10-08T08:41:03;14.27;;;4.47;;
18997;SDS011;9632;51.018;4.284;2023-10-08T08:43:32;15.75;;;4.55;;
18997;SDS011;9632;51.018;4.284;2023-10-08T08:46:01;11.90;;;4.20;;
18997;SDS011;9632;51.018;4.284;2023-10-08T08:48:30;17.13;;;4.80;;
18997;SDS011;9632;51.018;4.284;2023-10-08T08:50:59;11.68;;;4.30;;
18997;SDS011;9632;51.018;4.284;2023-10-08T08:53:25;10.73;;;4.70;;
18997;SDS011;9632;51.018;4.284;2023-10-08T08:55:51;12.82;;;4.63;;
18997;SDS011;9632;51.018;4.284;2023-10-08T08:58:19;13.48;;;4.20;;
18997;SDS011;9632;51.018;4.284;2023-10-08T09:00:47;9.98;;;3.85;;
18997;SDS011;9632;51.018;4.284;2023-10-08T09:03:12;9.52;;;3.80;;
18997;SDS011;9632;51.018;4.284;2023-10-08T09:05:38;10.88;;;4.07;;
18997;SDS011;9632;51.018;4.284;2023-10-08T09:08:06;8.98;;;3.72;;
18997;SDS011;9632;51.018;4.284;2023-10-08T09:10:32;14.23;;;4.78;;
18997;SDS011;9632;51.018;4.284;2023-10-08T09:13:02;11.70;;;3.97;;
18997;SDS011;9632;51.018;4.284;2023-10-08T09:15:36;13.65;;;4.18;;
18997;SDS011;9632;51.018;4.284;2023-10-08T09:18:03;14.93;;;5.40;;
18997;SDS011;9632;51.018;4.284;2023-10-08T09:20:29;15.35;;;5.07;;
18997;SDS011;9632;51.018;4.284;2023-10-08T09:23:06;17.05;;;5.38;;
18997;SDS011;9632;51.018;4.284;2023-10-08T09:25:36;16.45;;;5.50;;
18997;SDS011;9632;51.018;4.284;2023-10-08T09:28:05;11.70;;;4.57;;
18997;SDS011;9632;51.018;4.284;2023-10-08T09:30:33;12.93;;;4.80;;
18997;SDS011;9632;51.018;4.284;2023-10-08T09:33:04;15.07;;;5.10;;
18997;SDS011;9632;51.018;4.284;2023-10-08T09:35:31;11.63;;;4.75;;
18997;SDS011;9632;51.018;4.284;2023-10-08T09:37:57;14.63;;;6.05;;
18997;SDS011;9632;51.018;4.284;2023-10-08T09:40:23;14.13;;;4.68;;
18997;SDS011;9632;51.018;4.284;2023-10-08T09:42:50;13.65;;;5.55;;
18997;SDS011;9632;51.018;4.284;2023-10-08T09:45:17;16.92;;;5.57;;
18997;SDS011;9632;51.018;4.284;2023-10-08T09:47:50;14.98;;;4.55;;
18997;SDS011;9632;51.018;4.284;2023-10-08T09:50:20;11.80;;;4.93;;
18997;SDS011;9632;51.018;4.284;2023-10-08T09:53:12;10.45;;;4.32;;
18997;SDS011;9632;51.018;4.284;2023-10-08T09:55:56;14.70;;;4.95;;
18997;SDS011;9632;51.018;4.284;2023-10-08T09:58:23;15.35;;;5.25;;
18997;SDS011;9632;51.018;4.284;2023-10-08T10:00:54;14.48;;;5.18;;
18997;SDS011;9632;51.018;4.284;2023-10-08T10:03:22;17.48;;;5.82;;
18997;SDS011;9632;51.018;4.284;2023-10-08T10:05:51;16.75;;;5.68;;
18997;SDS011;9632;51.018;4.284;2023-10-08T10:08:18;16.75;;;6.35;;
18997;SDS011;9632;51.018;4.284;2023-10-08T10:10:49;19.48;;;6.47;;
18997;SDS011;9632;51.018;4.284;2023-10-08T10:13:29;15.88;;;5.70;;
18997;SDS011;9632;51.018;4.284;2023-10-08T10:16:17;15.38;;;5.40;;
18997;SDS011;9632;51.018;4.284;2023-10-08T10:18:44;17.73;;;6.63;;
18997;SDS011;9632;51.018;4.284;2023-10-08T10:23:43;19.20;;;5.47;;
18997;SDS011;9632;51.018;4.284;2023-10-08T10:26:26;13.68;;;5.00;;
18997;SDS011;9632;51.018;4.284;2023-10-08T10:31:43;21.10;;;6.18;;
18997;SDS011;9632;51.018;4.284;2023-10-08T10:34:12;15.77;;;6.30;;
18997;SDS011;9632;51.018;4.284;2023-10-08T10:36:41;14.15;;;5.55;;
18997;SDS011;9632;51.018;4.284;2023-10-08T10:39:09;18.48;;;5.45;;
18997;SDS011;9632;51.018;4.284;2023-10-08T10:41:44;21.25;;;6.90;;
18997;SDS011;9632;51.018;4.284;2023-10-08T10:44:11;16.83;;;5.97;;
18997;SDS011;9632;51.018;4.284;2023-10-08T10:46:39;16.85;;;5.97;;
18997;SDS011;9632;51.018;4.284;2023-10-08T10:49:10;20.50;;;5.90;;
18997;SDS011;9632;51.018;4.284;2023-10-08T10:51:43;13.35;;;5.47;;
18997;SDS011;9632;51.018;4.284;2023-10-08T10:54:13;16.40;;;5.82;;
18997;SDS011;9632;51.018;4.284;2023-10-08T10:56:46;17.52;;;5.88;;
18997;SDS011;9632;51.018;4.284;2023-10-08T10:59:12;14.88;;;5.50;;
18997;SDS011;9632;51.018;4.284;2023-10-08T11:01:51;17.27;;;5.80;;
18997;SDS011;9632;51.018;4.284;2023-10-08T11:04:20;18.08;;;6.30;;
18997;SDS011;9632;51.018;4.284;2023-10-08T11:06:54;14.90;;;5.38;;
18997;SDS011;9632;51.018;4.284;2023-10-08T11:09:27;16.67;;;6.05;;
18997;SDS011;9632;51.018;4.284;2023-10-08T11:12:04;14.07;;;5.65;;
18997;SDS011;9632;51.018;4.284;2023-10-08T11:14:40;15.85;;;5.72;;
18997;SDS011;9632;51.018;4.284;2023-10-08T11:17:11;16.92;;;5.85;;
18997;SDS011;9632;51.018;4.284;2023-10-08T11:19:37;15.95;;;5.78;;
18997;SDS011;9632;51.018;4.284;2023-10-08T11:22:03;16.50;;;5.45;;
18997;SDS011;9632;51.018;4.284;2023-10-08T11:24:31;15.32;;;5.63;;
18997;SDS011;9632;51.018;4.284;2023-10-08T11:27:01;17.38;;;5.25;;
18997;SDS011;9632;51.018;4.284;2023-10-08T11:29:41;13.52;;;4.75;;
18997;SDS011;9632;51.018;4.284;2023-10-08T11:32:09;17.70;;;5.30;;
18997;SDS011;9632;51.018;4.284;2023-10-08T11:34:38;14.52;;;5.13;;
18997;SDS011;9632;51.018;4.284;2023-10-08T11:37:04;13.73;;;5.25;;
18997;SDS011;9632;51.018;4.284;2023-10-08T11:39:39;15.07;;;5.80;;
18997;SDS011;9632;51.018;4.284;2023-10-08T11:42:10;16.42;;;5.53;;
18997;SDS011;9632;51.018;4.284;2023-10-08T11:44:55;14.63;;;5.00;;
18997;SDS011;9632;51.018;4.284;2023-10-08T11:47:20;15.80;;;5.53;;
18997;SDS011;9632;51.018;4.284;2023-10-08T11:49:47;22.92;;;5.88;;
18997;SDS011;9632;51.018;4.284;2023-10-08T11:52:15;13.90;;;5.20;;
18997;SDS011;9632;51.018;4.284;2023-10-08T11:54:42;15.32;;;5.55;;
18997;SDS011;9632;51.018;4.284;2023-10-08T11:57:09;14.88;;;5.40;;
18997;SDS011;9632;51.018;4.284;2023-10-08T11:59:36;12.75;;;5.18;;
18997;SDS011;9632;51.018;4.284;2023-10-08T12:02:05;14.27;;;5.50;;
18997;SDS011;9632;51.018;4.284;2023-10-08T12:04:31;18.55;;;5.47;;
18997;SDS011;9632;51.018;4.284;2023-10-08T12:06:57;12.40;;;4.60;;
18997;SDS011;9632;51.018;4.284;2023-10-08T12:09:27;16.27;;;5.30;;
18997;SDS011;9632;51.018;4.284;2023-10-08T12:11:53;15.75;;;5.28;;
18997;SDS011;9632;51.018;4.284;2023-10-08T12:14:21;13.13;;;4.88;;
18997;SDS011;9632;51.018;4.284;2023-10-08T12:16:51;15.98;;;4.72;;
18997;SDS011;9632;51.018;4.284;2023-10-08T12:19:17;15.50;;;5.50;;
18997;SDS011;9632;51.018;4.284;2023-10-08T12:21:43;15.30;;;5.30;;
18997;SDS011;9632;51.018;4.284;2023-10-08T12:24:13;13.52;;;4.78;;
18997;SDS011;9632;51.018;4.284;2023-10-08T12:26:39;18.10;;;5.05;;
18997;SDS011;9632;51.018;4.284;2023-10-08T12:29:12;11.00;;;4.20;;
18997;SDS011;9632;51.018;4.284;2023-10-08T12:31:44;19.08;;;5.13;;
18997;SDS011;9632;51.018;4.284;2023-10-08T12:34:13;17.63;;;4.57;;
18997;SDS011;9632;51.018;4.284;2023-10-08T12:36:39;14.02;;;4.50;;
18997;SDS011;9632;51.018;4.284;2023-10-08T12:39:04;10.52;;;4.05;;
18997;SDS011;9632;51.018;4.284;2023-10-08T12:41:39;13.05;;;4.90;;
18997;SDS011;9632;51.018;4.284;2023-10-08T12:44:06;10.13;;;3.80;;
18997;SDS011;9632;51.018;4.284;2023-10-08T12:46:32;10.63;;;4.15;;
18997;SDS011;9632;51.018;4.284;2023-10-08T12:48:59;13.57;;;5.00;;
18997;SDS011;9632;51.018;4.284;2023-10-08T12:51:26;14.65;;;4.82;;
18997;SDS011;9632;51.018;4.284;2023-10-08T12:53:57;9.80;;;4.10;;
18997;SDS011;9632;51.018;4.284;2023-10-08T12:56:32;10.15;;;4.05;;
18997;SDS011;9632;51.018;4.284;2023-10-08T12:59:03;10.88;;;4.30;;
18997;SDS011;9632;51.018;4.284;2023-10-08T13:01:31;8.48;;;4.00;;
18997;SDS011;9632;51.018;4.284;2023-10-08T13:03:58;10.60;;;4.65;;
18997;SDS011;9632;51.018;4.284;2023-10-08T13:06:27;9.38;;;4.50;;
18997;SDS011;9632;51.018;4.284;2023-10-08T13:08:56;11.73;;;4.30;;
18997;SDS011;9632;51.018;4.284;2023-10-08T13:11:27;11.15;;;4.82;;
18997;SDS011;9632;51.018;4.284;2023-10-08T13:13:59;12.90;;;4.63;;
18997;SDS011;9632;51.018;4.284;2023-10-08T13:16:25;13.18;;;4.43;;
18997;SDS011;9632;51.018;4.284;2023-10-08T13:18:56;10.75;;;4.30;;
18997;SDS011;9632;51.018;4.284;2023-10-08T13:21:23;11.20;;;4.75;;
18997;SDS011;9632;51.018;4.284;2023-10-08T13:23:53;13.60;;;5.25;;
18997;SDS011;9632;51.018;4.284;2023-10-08T13:26:24;11.52;;;4.55;;
18997;SDS011;9632;51.018;4.284;2023-10-08T13:28:55;8.20;;;4.03;;
18997;SDS011;9632;51.018;4.284;2023-10-08T13:31:21;9.43;;;3.97;;
18997;SDS011;9632;51.018;4.284;2023-10-08T13:33:48;12.57;;;4.63;;
18997;SDS011;9632;51.018;4.284;2023-10-08T13:36:14;10.55;;;4.18;;
18997;SDS011;9632;51.018;4.284;2023-10-08T13:38:40;9.65;;;3.90;;
18997;SDS011;9632;51.018;4.284;2023-10-08T13:41:07;11.85;;;4.00;;
18997;SDS011;9632;51.018;4.284;2023-10-08T13:43:43;10.55;;;4.15;;
18997;SDS011;9632;51.018;4.284;2023-10-08T13:46:14;11.35;;;4.47;;
18997;SDS011;9632;51.018;4.284;2023-10-08T13:48:42;10.75;;;4.38;;
18997;SDS011;9632;51.018;4.284;2023-10-08T13:51:13;14.50;;;5.43;;
18997;SDS011;9632;51.018;4.284;2023-10-08T13:53:54;13.77;;;5.40;;
18997;SDS011;9632;51.018;4.284;2023-10-08T13:56:28;17.13;;;5.53;;
18997;SDS011;9632;51.018;4.284;2023-10-08T13:58:56;14.88;;;5.13;;
18997;SDS011;9632;51.018;4.284;2023-10-08T14:01:32;12.32;;;4.97;;
18997;SDS011;9632;51.018;4.284;2023-10-08T14:03:59;12.88;;;5.10;;
18997;SDS011;9632;51.018;4.284;2023-10-08T14:06:31;14.30;;;5.55;;
18997;SDS011;9632;51.018;4.284;2023-10-08T14:08:59;12.93;;;4.85;;
18997;SDS011;9632;51.018;4.284;2023-10-08T14:11:26;10.63;;;4.63;;
18997;SDS011;9632;51.018;4.284;2023-10-08T14:13:58;10.00;;;4.57;;
18997;SDS011;9632;51.018;4.284;2023-10-08T14:16:28;14.05;;;4.80;;
18997;SDS011;9632;51.018;4.284;2023-10-08T14:18:54;10.43;;;4.28;;
18997;SDS011;9632;51.018;4.284;2023-10-08T14:21:24;9.38;;;3.83;;
18997;SDS011;9632;51.018;4.284;2023-10-08T14:23:55;12.68;;;4.70;;
18997;SDS011;9632;51.018;4.284;2023-10-08T14:26:27;11.50;;;4.25;;
18997;SDS011;9632;51.018;4.284;2023-10-08T14:29:00;12.43;;;4.70;;
18997;SDS011;9632;51.018;4.284;2023-10-08T14:31:32;11.70;;;4.20;;
18997;SDS011;9632;51.018;4.284;2023-10-08T14:33:59;7.75;;;3.63;;
18997;SDS011;9632;51.018;4.284;2023-10-08T14:36:37;11.30;;;4.55;;
18997;SDS011;9632;51.018;4.284;2023-10-08T14:39:21;20.20;;;4.82;;
18997;SDS011;9632;51.018;4.284;2023-10-08T14:42:06;11.73;;;4.50;;
18997;SDS011;9632;51.018;4.284;2023-10-08T14:44:50;12.20;;;4.53;;
18997;SDS011;9632;51.018;4.284;2023-10-08T14:47:15;11.77;;;4.28;;
18997;SDS011;9632;51.018;4.284;2023-10-08T14:49:41;12.63;;;4.97;;
18997;SDS011;9632;51.018;4.284;2023-10-08T14:52:11;13.48;;;4.40;;
18997;SDS011;9632;51.018;4.284;2023-10-08T14:54:37;10.13;;;4.43;;
18997;SDS011;9632;51.018;4.284;2023-10-08T14:57:03;11.98;;;4.70;;
18997;SDS011;9632;51.018;4.284;2023-10-08T14:59:30;15.50;;;4.65;;
18997;SDS011;9632;51.018;4.284;2023-10-08T15:01:57;12.15;;;4.32;;
18997;SDS011;9632;51.018;4.284;2023-10-08T15:04:23;12.27;;;4.47;;
18997;SDS011;9632;51.018;4.284;2023-10-08T15:06:51;12.15;;;4.38;;
18997;SDS011;9632;51.018;4.284;2023-10-08T15:09:17;9.82;;;4.53;;
18997;SDS011;9632;51.018;4.284;2023-10-08T15:11:51;11.05;;;4.30;;
18997;SDS011;9632;51.018;4.284;2023-10-08T15:14:21;11.23;;;3.95;;
18997;SDS011;9632;51.018;4.284;2023-10-08T15:16:51;7.57;;;3.60;;
18997;SDS011;9632;51.018;4.284;2023-10-08T15:19:20;8.98;;;4.25;;
18997;SDS011;9632;51.018;4.284;2023-10-08T15:21:50;10.27;;;4.20;;
18997;SDS011;9632;51.018;4.284;2023-10-08T15:24:22;9.40;;;4.13;;
18997;SDS011;9632;51.018;4.284;2023-10-08T15:26:48;9.95;;;4.00;;
18997;SDS011;9632;51.018;4.284;2023-10-08T15:29:15;7.93;;;3.53;;